createdAt,value
2017-10-28T00:00:06.006Z,101536.70
2017-10-28T00:02:33.896Z,101545.28
2017-10-28T00:05:01.420Z,101537.25
2017-10-28T00:07:29.053Z,101537.27
2017-10-28T00:09:57.040Z,101534.66
2017-10-28T00:12:24.588Z,101539.30
2017-10-28T00:14:52.117Z,101541.38
2017-10-28T00:17:19.656Z,101526.09
2017-10-28T00:19:47.182Z,101529.19
2017-10-28T00:22:14.714Z,101517.81
2017-10-28T00:24:42.291Z,101511.13
2017-10-28T00:27:09.950Z,101518.78
2017-10-28T00:29:37.737Z,101510.81
2017-10-28T00:35:14.197Z,101498.03
2017-10-28T00:37:41.881Z,101506.56
2017-10-28T00:40:09.648Z,101506.60
2017-10-28T00:42:37.289Z,101503.10
2017-10-28T00:45:04.857Z,101495.79
2017-10-28T00:47:32.424Z,101489.18
2017-10-28T00:49:59.949Z,101477.02
2017-10-28T00:52:27.531Z,101476.67
2017-10-28T00:54:55.059Z,101464.33
2017-10-28T00:57:22.634Z,101465.46
2017-10-28T00:59:50.169Z,101463.27
2017-10-28T01:02:17.780Z,101467.02
2017-10-28T01:04:45.844Z,101458.01
2017-10-28T01:07:13.373Z,101456.34
2017-10-28T01:09:40.937Z,101451.22
2017-10-28T01:12:08.535Z,101442.66
2017-10-28T01:14:36.195Z,101432.91
2017-10-28T01:17:03.721Z,101437.58
2017-10-28T01:19:31.295Z,101432.34
2017-10-28T01:21:58.821Z,101420.29
2017-10-28T01:24:26.442Z,101417.11
2017-10-28T01:26:53.986Z,101416.47
2017-10-28T01:29:21.520Z,101406.33
2017-10-28T01:31:49.083Z,101403.25
2017-10-28T01:34:16.633Z,101396.28
2017-10-28T01:36:44.167Z,101393.80
2017-10-28T01:39:11.697Z,101390.86
2017-10-28T01:41:39.268Z,101380.27
2017-10-28T01:44:06.799Z,101381.05
2017-10-28T01:46:34.361Z,101376.77
2017-10-28T01:49:01.885Z,101369.60
2017-10-28T01:51:32.381Z,101364.65
2017-10-28T01:53:59.921Z,101362.14
2017-10-28T01:56:27.450Z,101354.58
2017-10-28T01:58:55.973Z,101353.52
2017-10-28T02:01:23.532Z,101351.68
2017-10-28T02:03:51.053Z,101339.80
2017-10-28T02:06:18.652Z,101340.20
2017-10-28T02:08:46.181Z,101344.61
2017-10-28T02:11:13.772Z,101334.36
2017-10-28T02:13:41.295Z,101333.55
2017-10-28T02:16:09.057Z,101338.66
2017-10-28T02:18:36.622Z,101336.40
2017-10-28T02:21:04.237Z,101348.31
2017-10-28T02:23:31.772Z,101335.52
2017-10-28T02:25:59.299Z,101334.50
2017-10-28T02:28:26.827Z,101341.78
2017-10-28T02:30:54.466Z,101322.56
2017-10-28T02:33:22.065Z,101324.92
2017-10-28T02:35:49.683Z,101325.31
2017-10-28T02:38:17.217Z,101313.59
2017-10-28T02:40:44.749Z,101307.44
2017-10-28T02:43:12.309Z,101295.00
2017-10-28T02:45:39.835Z,101295.96
2017-10-28T02:48:07.353Z,101293.06
2017-10-28T02:50:35.243Z,101289.78
2017-10-28T02:53:02.802Z,101281.20
2017-10-28T02:55:30.324Z,101282.75
2017-10-28T02:57:57.904Z,101276.95
2017-10-28T03:00:25.434Z,101277.07
2017-10-28T03:02:53.428Z,101273.58
2017-10-28T03:05:21.288Z,101269.55
2017-10-28T03:07:48.849Z,101271.81
2017-10-28T03:10:17.589Z,101261.22
2017-10-28T03:12:45.161Z,101256.59
2017-10-28T03:15:12.697Z,101255.29
2017-10-28T03:17:40.226Z,101246.99
2017-10-28T03:20:07.755Z,101246.39
2017-10-28T03:22:35.283Z,101239.16
2017-10-28T03:25:02.830Z,101220.84
2017-10-28T03:27:30.358Z,101227.12
2017-10-28T03:29:57.886Z,101229.94
2017-10-28T03:32:25.456Z,101231.03
2017-10-28T03:34:52.988Z,101224.83
2017-10-28T03:37:20.521Z,101228.78
2017-10-28T03:39:48.086Z,101224.33
2017-10-28T03:42:15.655Z,101216.39
2017-10-28T03:44:43.177Z,101204.45
2017-10-28T03:47:10.778Z,101209.64
2017-10-28T03:49:39.102Z,101212.40
2017-10-28T03:52:06.628Z,101206.89
2017-10-28T03:54:34.292Z,101208.20
2017-10-28T03:57:01.821Z,101202.73
2017-10-28T03:59:29.397Z,101197.69
2017-10-28T04:01:56.970Z,101196.34
2017-10-28T04:04:24.515Z,101195.64
2017-10-28T04:06:52.050Z,101190.88
2017-10-28T04:09:19.589Z,101184.95
2017-10-28T04:11:47.196Z,101186.74
2017-10-28T04:14:14.721Z,101183.98
2017-10-28T04:16:42.320Z,101180.28
2017-10-28T04:19:09.881Z,101179.69
2017-10-28T04:21:37.453Z,101176.05
2017-10-28T04:24:05.513Z,101177.81
2017-10-28T04:26:33.037Z,101181.98
2017-10-28T04:29:00.631Z,101176.58
2017-10-28T04:31:28.172Z,101173.16
2017-10-28T04:33:55.700Z,101172.45
2017-10-28T04:36:23.322Z,101162.39
2017-10-28T04:38:50.905Z,101162.25
2017-10-28T04:41:18.429Z,101158.20
2017-10-28T04:43:46.286Z,101150.54
2017-10-28T04:46:13.821Z,101132.13
2017-10-28T04:48:41.356Z,101132.19
2017-10-28T04:51:08.895Z,101124.07
2017-10-28T04:53:36.429Z,101112.08
2017-10-28T04:56:04.020Z,101094.36
2017-10-28T04:58:31.568Z,101098.84
2017-10-28T05:00:59.134Z,101091.28
2017-10-28T05:03:26.677Z,101084.05
2017-10-28T05:05:54.204Z,101079.39
2017-10-28T05:08:21.739Z,101074.21
2017-10-28T05:10:50.159Z,101063.80
2017-10-28T05:13:17.746Z,101069.83
2017-10-28T05:15:45.325Z,101054.28
2017-10-28T05:18:12.858Z,101049.14
2017-10-28T05:20:40.442Z,101041.41
2017-10-28T05:23:08.056Z,101040.40
2017-10-28T05:25:35.751Z,101035.28
2017-10-28T05:28:03.281Z,101024.77
2017-10-28T05:30:30.812Z,101007.50
2017-10-28T05:32:58.688Z,101010.75
2017-10-28T05:35:26.212Z,101013.70
2017-10-28T05:37:53.871Z,101003.86
2017-10-28T05:40:21.405Z,101009.20
2017-10-28T05:42:48.937Z,101011.16
2017-10-28T05:45:16.472Z,101007.88
2017-10-28T05:47:44.001Z,101011.66
2017-10-28T05:50:11.537Z,101007.84
2017-10-28T05:52:39.062Z,101015.38
2017-10-28T05:55:06.586Z,101009.70
2017-10-28T05:57:34.110Z,101006.94
2017-10-28T06:00:01.641Z,101001.75
2017-10-28T06:02:29.166Z,100996.76
2017-10-28T06:04:56.826Z,100992.57
2017-10-28T06:07:24.390Z,101000.33
2017-10-28T06:09:51.947Z,100994.22
2017-10-28T06:12:19.476Z,100983.70
2017-10-28T06:14:47.000Z,100972.82
2017-10-28T06:17:14.526Z,100965.09
2017-10-28T06:19:42.052Z,100973.24
2017-10-28T06:22:09.845Z,100979.08
2017-10-28T06:24:37.464Z,100961.09
2017-10-28T06:27:04.996Z,100960.17
2017-10-28T06:29:32.534Z,100976.16
2017-10-28T06:32:00.061Z,100975.16
2017-10-28T06:34:27.589Z,100976.05
2017-10-28T06:36:55.164Z,100982.84
2017-10-28T06:39:22.696Z,100979.08
2017-10-28T06:41:50.226Z,100979.81
2017-10-28T06:44:17.773Z,100978.50
2017-10-28T06:46:45.301Z,100977.42
2017-10-28T06:49:12.822Z,100972.24
2017-10-28T06:51:40.351Z,100962.79
2017-10-28T06:54:07.912Z,100943.19
2017-10-28T06:56:35.440Z,100947.42
2017-10-28T06:59:03.024Z,100938.12
2017-10-28T07:01:30.617Z,100925.16
2017-10-28T07:03:58.146Z,100899.08
2017-10-28T07:06:32.854Z,100890.05
2017-10-28T07:09:00.462Z,100894.69
2017-10-28T07:11:27.995Z,100892.27
2017-10-28T07:13:55.567Z,100894.11
2017-10-28T07:16:23.773Z,100894.65
2017-10-28T07:18:51.322Z,100899.98
2017-10-28T07:21:18.853Z,100887.23
2017-10-28T07:23:46.390Z,100885.11
2017-10-28T07:26:13.998Z,100895.52
2017-10-28T07:28:41.541Z,100896.61
2017-10-28T07:31:09.123Z,100897.37
2017-10-28T07:33:36.654Z,100899.97
2017-10-28T07:36:04.236Z,100890.42
2017-10-28T07:38:31.877Z,100872.66
2017-10-28T07:40:59.410Z,100874.64
2017-10-28T07:43:26.951Z,100884.52
2017-10-28T07:45:54.488Z,100883.71
2017-10-28T07:48:22.017Z,100881.61
2017-10-28T07:50:50.513Z,100880.41
2017-10-28T07:53:18.104Z,100877.81
2017-10-28T07:55:45.661Z,100869.97
2017-10-28T07:58:13.184Z,100859.51
2017-10-28T08:00:40.712Z,100852.34
2017-10-28T08:03:08.250Z,100860.00
2017-10-28T08:05:35.924Z,100834.98
2017-10-28T08:08:03.523Z,100834.30
2017-10-28T08:10:31.053Z,100835.86
2017-10-28T08:12:58.641Z,100821.01
2017-10-28T08:15:26.221Z,100828.91
2017-10-28T08:17:53.756Z,100814.45
2017-10-28T08:20:21.288Z,100820.92
2017-10-28T08:22:48.825Z,100807.38
2017-10-28T08:25:16.358Z,100817.16
2017-10-28T08:27:43.892Z,100812.14
2017-10-28T08:30:11.427Z,100816.62
2017-10-28T08:32:38.952Z,100818.67
2017-10-28T08:35:06.621Z,100817.28
2017-10-28T08:37:34.170Z,100817.33
2017-10-28T08:40:01.701Z,100807.03
2017-10-28T08:42:29.237Z,100785.71
2017-10-28T08:44:56.780Z,100789.05
2017-10-28T08:47:24.792Z,100781.55
2017-10-28T08:49:52.320Z,100771.80
2017-10-28T08:52:19.844Z,100768.17
2017-10-28T08:54:47.908Z,100770.95
2017-10-28T08:57:15.443Z,100764.45
2017-10-28T08:59:42.972Z,100767.92
2017-10-28T09:02:10.509Z,100754.92
2017-10-28T09:04:38.051Z,100743.99
2017-10-28T09:07:05.640Z,100752.77
2017-10-28T09:09:33.169Z,100754.58
2017-10-28T09:12:01.094Z,100755.37
2017-10-28T09:14:28.667Z,100738.31
2017-10-28T09:16:56.196Z,100719.64
2017-10-28T09:19:24.336Z,100709.77
2017-10-28T09:21:51.867Z,100710.30
2017-10-28T09:24:19.440Z,100705.37
2017-10-28T09:26:47.011Z,100705.22
2017-10-28T09:29:14.700Z,100698.95
2017-10-28T09:31:42.315Z,100688.55
2017-10-28T09:34:10.006Z,100685.91
2017-10-28T09:36:37.536Z,100686.02
2017-10-28T09:39:05.104Z,100692.16
2017-10-28T09:41:32.662Z,100686.28
2017-10-28T09:44:00.205Z,100690.05
2017-10-28T09:46:27.934Z,100688.11
2017-10-28T09:48:55.580Z,100689.30
2017-10-28T09:51:23.148Z,100679.29
2017-10-28T09:53:50.717Z,100679.12
2017-10-28T09:56:18.301Z,100663.43
2017-10-28T09:58:45.934Z,100661.00
2017-10-28T10:01:13.471Z,100644.27
2017-10-28T10:03:41.057Z,100642.00
2017-10-28T10:06:08.599Z,100630.05
2017-10-28T10:08:36.128Z,100627.02
2017-10-28T10:11:03.720Z,100624.87
2017-10-28T10:13:31.288Z,100615.41
2017-10-28T10:15:58.815Z,100616.13
2017-10-28T10:18:26.409Z,100614.03
2017-10-28T10:20:53.963Z,100637.91
2017-10-28T10:23:21.496Z,100619.93
2017-10-28T10:25:49.026Z,100613.26
2017-10-28T10:28:16.556Z,100611.59
2017-10-28T10:30:44.090Z,100616.95
2017-10-28T10:33:11.629Z,100601.50
2017-10-28T10:35:39.204Z,100600.53
2017-10-28T10:38:06.749Z,100596.37
2017-10-28T10:40:34.277Z,100583.92
2017-10-28T10:43:01.813Z,100579.47
2017-10-28T10:45:29.354Z,100566.21
2017-10-28T10:47:57.036Z,100562.75
2017-10-28T10:50:32.844Z,100563.23
2017-10-28T10:53:00.439Z,100561.69
2017-10-28T10:55:28.018Z,100556.20
2017-10-28T10:57:55.555Z,100558.56
2017-10-28T11:00:23.603Z,100546.25
2017-10-28T11:02:51.142Z,100540.44
2017-10-28T11:05:18.742Z,100528.80
2017-10-28T11:07:46.331Z,100527.00
2017-10-28T11:10:13.863Z,100530.45
2017-10-28T11:12:41.399Z,100522.19
2017-10-28T11:15:08.934Z,100521.30
2017-10-28T11:17:36.479Z,100531.82
2017-10-28T11:20:04.013Z,100504.11
2017-10-28T11:22:31.553Z,100504.78
2017-10-28T11:24:59.090Z,100492.43
2017-10-28T11:27:26.627Z,100493.23
2017-10-28T11:29:54.168Z,100479.34
2017-10-28T11:32:21.728Z,100485.28
2017-10-28T11:34:49.270Z,100468.49
2017-10-28T11:37:17.457Z,100474.71
2017-10-28T11:39:45.557Z,100457.45
2017-10-28T11:42:13.097Z,100449.63
2017-10-28T11:44:40.630Z,100454.36
2017-10-28T11:47:08.160Z,100435.56
2017-10-28T11:49:35.816Z,100456.89
2017-10-28T11:52:03.345Z,100462.64
2017-10-28T11:54:30.877Z,100454.04
2017-10-28T11:56:58.456Z,100444.55
2017-10-28T11:59:25.997Z,100452.12
2017-10-28T12:01:53.535Z,100439.81
2017-10-28T12:04:21.072Z,100437.56
2017-10-28T12:06:48.614Z,100421.61
2017-10-28T12:09:17.187Z,100435.03
2017-10-28T12:11:44.745Z,100413.77
2017-10-28T12:14:12.278Z,100416.78
2017-10-28T12:16:39.839Z,100414.70
2017-10-28T12:19:07.507Z,100389.21
2017-10-28T12:21:35.085Z,100396.23
2017-10-28T12:24:02.621Z,100393.42
2017-10-28T12:26:30.154Z,100382.80
2017-10-28T12:29:00.908Z,100389.55
2017-10-28T12:31:28.492Z,100405.91
2017-10-28T12:33:56.071Z,100393.58
2017-10-28T12:36:23.605Z,100384.88
2017-10-28T12:38:51.144Z,100373.68
2017-10-28T12:41:18.715Z,100377.94
2017-10-28T12:43:46.249Z,100375.77
2017-10-28T12:46:13.788Z,100369.53
2017-10-28T12:48:41.334Z,100363.91
2017-10-28T12:51:08.879Z,100361.51
2017-10-28T12:53:36.461Z,100349.63
2017-10-28T12:56:03.998Z,100335.48
2017-10-28T12:58:31.662Z,100333.16
2017-10-28T13:00:59.202Z,100330.64
2017-10-28T13:03:26.748Z,100319.21
2017-10-28T13:05:54.355Z,100301.03
2017-10-28T13:08:21.981Z,100316.03
2017-10-28T13:10:49.511Z,100327.71
2017-10-28T13:13:17.560Z,100308.55
2017-10-28T13:15:46.716Z,100320.97
2017-10-28T13:18:14.468Z,100313.16
2017-10-28T13:20:42.058Z,100310.06
2017-10-28T13:23:09.595Z,100316.26
2017-10-28T13:25:37.124Z,100319.57
2017-10-28T13:28:05.548Z,100295.70
2017-10-28T13:30:33.082Z,100289.24
2017-10-28T13:33:00.667Z,100279.62
2017-10-28T13:35:28.206Z,100289.30
2017-10-28T13:37:56.402Z,100282.61
2017-10-28T13:40:23.989Z,100288.66
2017-10-28T13:42:51.528Z,100272.46
2017-10-28T13:45:19.066Z,100263.17
2017-10-28T13:47:46.597Z,100268.67
2017-10-28T13:50:14.125Z,100251.55
2017-10-28T13:52:41.702Z,100276.59
2017-10-28T13:55:09.676Z,100260.36
2017-10-28T13:57:37.223Z,100249.66
2017-10-28T14:00:04.755Z,100226.81
2017-10-28T14:02:32.290Z,100231.52
2017-10-28T14:04:59.833Z,100247.97
2017-10-28T14:07:27.376Z,100228.70
2017-10-28T14:09:54.946Z,100233.53
2017-10-28T14:12:22.495Z,100229.66
2017-10-28T14:14:50.097Z,100223.92
2017-10-28T14:17:17.625Z,100222.97
2017-10-28T14:19:45.165Z,100212.46
2017-10-28T14:22:12.704Z,100216.78
2017-10-28T14:24:40.236Z,100193.80
2017-10-28T14:27:07.772Z,100189.11
2017-10-28T14:29:35.314Z,100195.44
2017-10-28T14:32:02.897Z,100187.10
2017-10-28T14:34:30.432Z,100182.75
2017-10-28T14:36:58.408Z,100188.59
2017-10-28T14:39:25.946Z,100186.07
2017-10-28T14:41:53.483Z,100192.48
2017-10-28T14:44:21.160Z,100187.50
2017-10-28T14:46:48.689Z,100185.35
2017-10-28T14:49:17.198Z,100186.21
2017-10-28T14:51:44.737Z,100181.03
2017-10-28T14:54:12.274Z,100180.81
2017-10-28T14:56:39.807Z,100167.36
2017-10-28T14:59:07.343Z,100167.61
2017-10-28T15:01:34.913Z,100167.14
2017-10-28T15:04:02.453Z,100169.81
2017-10-28T15:06:29.984Z,100169.72
2017-10-28T15:08:57.522Z,100143.84
2017-10-28T15:11:25.089Z,100154.63
2017-10-28T15:13:52.630Z,100166.69
2017-10-28T15:16:20.164Z,100167.23
2017-10-28T15:18:47.714Z,100153.84
2017-10-28T15:21:15.236Z,100155.98
2017-10-28T15:23:42.778Z,100150.16
2017-10-28T15:26:10.317Z,100151.61
2017-10-28T15:28:37.858Z,100138.38
2017-10-28T15:31:05.398Z,100152.99
2017-10-28T15:33:32.960Z,100152.08
2017-10-28T15:36:00.521Z,100144.94
2017-10-28T15:38:28.061Z,100167.66
2017-10-28T15:40:55.641Z,100145.87
2017-10-28T15:43:23.190Z,100136.38
2017-10-28T15:45:50.728Z,100165.13
2017-10-28T15:48:18.264Z,100155.53
2017-10-28T15:50:45.953Z,100158.28
2017-10-28T15:53:13.892Z,100136.84
2017-10-28T15:55:41.599Z,100139.62
2017-10-28T15:58:09.187Z,100149.57
2017-10-28T16:00:36.727Z,100132.09
2017-10-28T16:03:04.266Z,100118.09
2017-10-28T16:05:31.800Z,100127.56
2017-10-28T16:07:59.375Z,100112.39
2017-10-28T16:10:26.913Z,100113.33
2017-10-28T16:12:54.445Z,100124.94
2017-10-28T16:15:21.990Z,100109.97
2017-10-28T16:17:49.525Z,100100.63
2017-10-28T16:20:17.493Z,100103.56
2017-10-28T16:22:45.028Z,100095.58
2017-10-28T16:25:12.593Z,100098.63
2017-10-28T16:27:40.122Z,100108.40
2017-10-28T16:30:07.712Z,100101.25
2017-10-28T16:32:35.292Z,100101.31
2017-10-28T16:35:02.824Z,100092.00
2017-10-28T16:37:30.404Z,100099.99
2017-10-28T16:39:58.487Z,100094.17
2017-10-28T16:42:26.021Z,100096.54
2017-10-28T16:44:53.585Z,100076.45
2017-10-28T16:47:21.156Z,100084.52
2017-10-28T16:49:48.720Z,100078.88
2017-10-28T16:52:16.256Z,100083.87
2017-10-28T16:54:43.789Z,100066.20
2017-10-28T16:57:11.328Z,100063.52
2017-10-28T16:59:38.900Z,100069.23
2017-10-28T17:02:07.386Z,100061.37
2017-10-28T17:04:34.977Z,100052.95
2017-10-28T17:07:02.525Z,100052.48
2017-10-28T17:09:30.059Z,100054.99
2017-10-28T17:11:57.592Z,100044.20
2017-10-28T17:14:27.433Z,100044.22
2017-10-28T17:16:56.686Z,100052.91
2017-10-28T17:19:24.301Z,100039.68
2017-10-28T17:21:51.957Z,100040.70
2017-10-28T17:24:20.192Z,100035.03
2017-10-28T17:26:48.919Z,100037.23
2017-10-28T17:29:16.613Z,100028.62
2017-10-28T17:31:44.201Z,100036.35
2017-10-28T17:34:11.733Z,100033.73
2017-10-28T17:36:39.290Z,100031.30
2017-10-28T17:39:07.777Z,100012.34
2017-10-28T17:41:35.312Z,100019.42
2017-10-28T17:44:03.768Z,100009.09
2017-10-28T17:46:31.345Z,100020.93
2017-10-28T17:48:59.704Z,100016.80
2017-10-28T17:51:27.713Z,100015.06
2017-10-28T17:53:55.249Z,99999.20
2017-10-28T17:56:23.665Z,100005.03
2017-10-28T17:58:53.580Z,100001.88
2017-10-28T18:01:22.320Z,100001.05
2017-10-28T18:03:50.696Z,99988.72
2017-10-28T18:06:18.973Z,99982.16
2017-10-28T18:08:46.741Z,99979.00
2017-10-28T18:11:14.777Z,99965.52
2017-10-28T18:13:42.308Z,99963.65
2017-10-28T18:16:09.839Z,99973.41
2017-10-28T18:18:37.380Z,99972.01
2017-10-28T18:21:04.916Z,99971.60
2017-10-28T18:23:32.445Z,99942.44
2017-10-28T18:25:59.977Z,99939.97
2017-10-28T18:28:27.531Z,99937.30
2017-10-28T18:30:55.071Z,99936.61
2017-10-28T18:33:23.542Z,99935.21
2017-10-28T18:35:51.070Z,99936.46
2017-10-28T18:38:21.710Z,99934.94
2017-10-28T18:40:49.250Z,99938.45
2017-10-28T18:43:20.487Z,99926.93
2017-10-28T18:45:49.102Z,99921.84
2017-10-28T18:48:16.630Z,99916.75
2017-10-28T18:50:44.169Z,99916.27
2017-10-28T18:53:11.706Z,99917.93
2017-10-28T18:55:39.239Z,99910.94
2017-10-28T18:58:06.775Z,99890.82
2017-10-28T19:00:34.340Z,99883.64
2017-10-28T19:03:01.873Z,99882.55
2017-10-28T19:05:29.445Z,99876.06
2017-10-28T19:07:56.998Z,99859.66
2017-10-28T19:10:24.533Z,99871.53
2017-10-28T19:12:52.067Z,99872.46
2017-10-28T19:15:19.632Z,99868.69
2017-10-28T19:17:47.716Z,99849.19
2017-10-28T19:20:15.265Z,99850.83
2017-10-28T19:22:42.857Z,99847.64
2017-10-28T19:25:10.401Z,99851.61
2017-10-28T19:27:37.946Z,99844.05
2017-10-28T19:30:05.493Z,99823.00
2017-10-28T19:32:33.963Z,99804.52
2017-10-28T19:35:01.501Z,99801.27
2017-10-28T19:37:29.050Z,99805.70
2017-10-28T19:39:56.590Z,99787.82
2017-10-28T19:42:24.700Z,99776.66
2017-10-28T19:44:52.275Z,99764.05
2017-10-28T19:47:20.318Z,99768.66
2017-10-28T19:49:50.241Z,99758.41
2017-10-28T19:52:18.946Z,99771.58
2017-10-28T19:54:46.484Z,99762.70
2017-10-28T19:57:14.032Z,99762.34
2017-10-28T19:59:41.570Z,99750.72
2017-10-28T20:02:09.105Z,99752.50
2017-10-28T20:04:36.688Z,99746.93
2017-10-28T20:07:04.241Z,99741.09
2017-10-28T20:09:31.825Z,99738.95
2017-10-28T20:12:03.439Z,99724.30
2017-10-28T20:14:31.092Z,99722.26
2017-10-28T20:17:01.115Z,99728.20
2017-10-28T20:19:28.661Z,99710.63
2017-10-28T20:21:56.259Z,99687.56
2017-10-28T20:24:23.845Z,99688.19
2017-10-28T20:26:51.383Z,99680.45
2017-10-28T20:29:19.224Z,99671.23
2017-10-28T20:31:46.812Z,99659.44
2017-10-28T20:34:14.340Z,99648.30
2017-10-28T20:36:42.811Z,99653.23
2017-10-28T20:39:10.374Z,99643.48
2017-10-28T20:41:37.946Z,99640.57
2017-10-28T20:44:05.479Z,99631.17
2017-10-28T20:46:34.244Z,99617.56
2017-10-28T20:49:02.543Z,99614.88
2017-10-28T20:51:31.194Z,99603.05
2017-10-28T20:53:58.728Z,99601.48
2017-10-28T20:56:26.261Z,99594.66
2017-10-28T20:58:53.797Z,99578.65
2017-10-28T21:01:21.337Z,99576.16
2017-10-28T21:03:48.880Z,99568.94
2017-10-28T21:06:16.411Z,99563.09
2017-10-28T21:08:43.947Z,99563.98
2017-10-28T21:11:11.531Z,99554.20
2017-10-28T21:13:40.495Z,99552.70
2017-10-28T21:16:08.484Z,99534.81
2017-10-28T21:18:39.765Z,99534.55
2017-10-28T21:21:07.308Z,99519.13
2017-10-28T21:23:35.580Z,99521.63
2017-10-28T21:26:03.118Z,99494.45
2017-10-28T21:28:32.451Z,99486.09
2017-10-28T21:31:00.104Z,99481.67
2017-10-28T21:33:27.632Z,99480.45
2017-10-28T21:35:55.168Z,99465.27
2017-10-28T21:38:22.803Z,99457.63
2017-10-28T21:40:50.336Z,99445.61
2017-10-28T21:43:17.903Z,99437.56
2017-10-28T21:45:45.497Z,99426.00
2017-10-28T21:48:13.434Z,99420.85
2017-10-28T21:50:40.990Z,99416.73
2017-10-28T21:53:08.524Z,99399.84
2017-10-28T21:55:36.622Z,99384.55
2017-10-28T21:58:04.157Z,99372.41
2017-10-28T22:00:31.688Z,99371.21
2017-10-28T22:02:59.250Z,99355.75
2017-10-28T22:05:26.833Z,99369.68
2017-10-28T22:07:54.362Z,99352.08
2017-10-28T22:10:21.907Z,99345.14
2017-10-28T22:12:49.436Z,99331.07
2017-10-28T22:15:16.966Z,99314.07
2017-10-28T22:17:44.492Z,99311.26
2017-10-28T22:20:12.025Z,99299.09
2017-10-28T22:22:39.569Z,99292.53
2017-10-28T22:25:07.130Z,99281.47
2017-10-28T22:27:34.760Z,99273.86
2017-10-28T22:30:03.134Z,99270.87
2017-10-28T22:32:31.209Z,99260.73
2017-10-28T22:34:58.740Z,99248.88
2017-10-28T22:37:26.282Z,99248.68
2017-10-28T22:39:53.848Z,99236.41
2017-10-28T22:42:21.385Z,99228.11
2017-10-28T22:44:48.970Z,99225.72
2017-10-28T22:47:16.504Z,99209.52
2017-10-28T22:49:44.125Z,99195.48
2017-10-28T22:52:11.681Z,99194.11
2017-10-28T22:54:39.226Z,99187.48
2017-10-28T22:57:06.769Z,99177.29
2017-10-28T22:59:34.301Z,99174.64
2017-10-28T23:02:02.469Z,99148.11
2017-10-28T23:04:30.007Z,99143.42
2017-10-28T23:06:57.531Z,99128.80
2017-10-28T23:09:25.065Z,99114.20
2017-10-28T23:11:52.589Z,99090.59
2017-10-28T23:14:20.142Z,99089.02
2017-10-28T23:16:47.685Z,99073.45
2017-10-28T23:19:15.258Z,99060.81
2017-10-28T23:21:42.800Z,99057.31
2017-10-28T23:24:10.368Z,99053.05
2017-10-28T23:26:37.913Z,99032.48
2017-10-28T23:29:05.464Z,99022.94
2017-10-28T23:31:33.002Z,99018.16
2017-10-28T23:34:00.545Z,99009.98
2017-10-28T23:36:28.081Z,99002.24
2017-10-28T23:38:55.619Z,98990.50
2017-10-28T23:41:23.152Z,98984.72
2017-10-28T23:43:50.701Z,98972.25
2017-10-28T23:46:18.324Z,98968.33
2017-10-28T23:48:45.891Z,98961.49
2017-10-28T23:51:13.421Z,98942.55
2017-10-28T23:53:41.401Z,98925.89
2017-10-28T23:56:08.934Z,98917.81
2017-10-28T23:58:37.125Z,98902.02
